Homosassa, Florida
Current Conditions -  °F | °C
As of 4:35 PM on Sunday 21 Dec 2014 (Local Time) from KCGC Reporting Station
Thunderstorm Thunderstorm  
Wind Chill: 18°   Ceiling: 9000
Heat Index: 18°   Visibility: 3mi
Dew Point: 17°   Wind: 3mph
Humidity: 94%   Direction: 350°N
Pressure: 30.03"   Gusts: NA
Location:  28.78°N, 82.62°W
Report Text: KCGC 212135Z AUTO 35003KT 3SM TSRA OVC090 18/17 A3003 RMK AO2 LTG DSNT N P0006
Loading
Personal Weather Stations






























Interactive Weather Map New forecast layout! Learn more

10-Day Weather Forecast

Advertisements
Track Severe Weather on mobile